Time;durP1;ratioP1;P1;durP2;ratioP2;P2;SDS_P1;SDS_P2;PMS_P1;PMS_P2;Temp;Humidity;BMP_temperature;BMP_pressure;BME280_temperature;BME280_humidity;BME280_pressure;Samples;Min_cycle;Max_cycle;Signal;HPM_P1;HPM_P2
2023/10/09 00:01:17;;;;;;;8.13;3.40;;;;;;;;;;5098442;28;20038;-85
2023/10/09 00:03:43;;;;;;;6.35;3.15;;;;;;;;;;5112603;28;20028;-87
2023/10/09 00:06:13;;;;;;;7.82;3.80;;;;;;;;;;5112091;28;20498;-86
2023/10/09 00:08:44;;;;;;;5.93;3.42;;;;;;;;;;5112396;28;20107;-87
2023/10/09 00:11:17;;;;;;;15.25;3.85;;;;;;;;;;5112972;28;20050;-85
2023/10/09 00:13:51;;;;;;;12.30;3.78;;;;;;;;;;5112296;28;20080;-86
2023/10/09 00:16:24;;;;;;;5.68;3.38;;;;;;;;;;5111664;28;20020;-84
2023/10/09 00:18:50;;;;;;;7.63;3.80;;;;;;;;;;5111876;28;20023;-87
2023/10/09 00:21:20;;;;;;;6.65;3.83;;;15.10;99.90;;;;;;5093071;28;20020;-84
2023/10/09 00:23:53;;;;;;;7.25;3.80;;;15.00;99.90;;;;;;5111391;28;20031;-84
2023/10/09 00:26:22;;;;;;;6.38;3.38;;;15.00;99.90;;;;;;5110764;28;20388;-83
2023/10/09 00:28:50;;;;;;;6.97;4.05;;;15.10;99.90;;;;;;5110568;28;20039;-84
2023/10/09 00:31:29;;;;;;;9.57;3.95;;;15.10;99.90;;;;;;5092905;28;20084;-83
2023/10/09 00:33:55;;;;;;;9.13;4.00;;;15.10;99.90;;;;;;5109554;28;20027;-85
2023/10/09 00:36:27;;;;;;;7.75;3.50;;;15.20;99.90;;;;;;5092946;28;20161;-85
2023/10/09 00:38:53;;;;;;;8.05;3.42;;;15.20;99.90;;;;;;5110114;28;20019;-87
2023/10/09 00:41:20;;;;;;;6.60;3.35;;;15.10;99.90;;;;;;5093116;28;20114;-89
2023/10/09 00:43:49;;;;;;;6.80;3.50;;;15.10;99.90;;;;;;5110936;28;20024;-83
2023/10/09 00:48:49;;;;;;;7.80;3.80;;;15.00;99.90;;;;;;5111423;28;20051;-84
2023/10/09 00:51:19;;;;;;;9.80;3.80;;;15.00;99.90;;;;;;5092383;28;20114;-87
2023/10/09 00:53:51;;;;;;;6.43;4.05;;;14.90;99.90;;;;;;5111838;28;20028;-89
2023/10/09 00:56:37;;;;;;;6.88;3.45;;;14.80;99.90;;;;;;5092489;28;20081;-84
2023/10/09 00:59:08;;;;;;;6.13;3.47;;;14.80;99.90;;;;;;5110932;28;20030;-86
2023/10/09 01:01:36;;;;;;;6.68;4.07;;;14.80;99.90;;;;;;5110714;28;20023;-86
2023/10/09 01:04:14;;;;;;;9.63;4.28;;;14.80;99.90;;;;;;5110517;28;20024;-85
2023/10/09 01:06:44;;;;;;;;;;;14.70;99.90;;;;;;5110838;28;20461;-84
2023/10/09 01:09:14;;;;;;;7.47;3.53;;;14.60;99.90;;;;;;5108915;28;19911;-85
2023/10/09 01:11:57;;;;;;;6.20;3.60;;;14.50;99.90;;;;;;5091806;28;20026;-87
2023/10/09 01:14:22;;;;;;;4.82;3.20;;;14.60;99.90;;;;;;5110280;28;20494;-84
2023/10/09 01:16:48;;;;;;;7.88;4.00;;;14.60;99.90;;;;;;5110096;28;20015;-84
2023/10/09 01:19:23;;;;;;;8.18;3.92;;;14.50;99.90;;;;;;5092988;28;20028;-89
2023/10/09 01:21:53;;;;;;;10.30;4.65;;;14.50;99.90;;;;;;5092297;28;20020;-87
2023/10/09 01:24:19;;;;;;;7.97;4.28;;;14.50;99.90;;;;;;5091863;28;20024;-84
2023/10/09 01:26:47;;;;;;;7.00;4.10;;;14.60;99.90;;;;;;5072546;28;20032;-87
2023/10/09 01:29:19;;;;;;;7.68;4.00;;;14.70;99.90;;;;;;5074362;28;20468;-89
2023/10/09 01:32:00;;;;;;;9.15;4.13;;;14.60;99.90;;;;;;5092551;28;20425;-88
2023/10/09 01:37:19;;;;;;;11.48;4.13;;;14.50;99.90;;;;;;5090083;28;20400;-85
2023/10/09 01:39:50;;;;;;;7.85;4.03;;;14.50;99.90;;;;;;5090693;28;20395;-88
2023/10/09 01:42:35;;;;;;;10.45;4.63;;;14.50;99.90;;;;;;5072353;28;20035;-83
2023/10/09 01:45:16;;;;;;;5.85;4.00;;;14.40;99.90;;;;;;5108371;28;20047;-86
2023/10/09 01:47:51;;;;;;;9.00;4.88;;;14.40;99.90;;;;;;5109618;28;20494;-88
2023/10/09 01:50:22;;;;;;;8.13;4.32;;;14.40;99.90;;;;;;5092186;28;20027;-84
2023/10/09 01:52:51;;;;;;;7.00;3.70;;;14.40;99.90;;;;;;5109749;28;20019;-83
2023/10/09 02:00:49;;;;;;;7.57;3.95;;;14.50;99.90;;;;;;5110957;28;20030;-87
2023/10/09 02:03:15;;;;;;;8.05;4.43;;;14.50;99.90;;;;;;5092232;28;20111;-86
2023/10/09 02:05:45;;;;;;;7.45;4.20;;;14.40;99.90;;;;;;5091596;28;20023;-85
2023/10/09 02:08:11;;;;;;;8.52;4.30;;;14.50;99.90;;;;;;5091199;28;20192;-88
2023/10/09 02:10:39;;;;;;;9.27;4.60;;;14.40;99.90;;;;;;5110023;28;20555;-87
2023/10/09 02:13:06;;;;;;;8.38;4.57;;;14.50;99.90;;;;;;5109382;28;20391;-86
2023/10/09 02:21:13;;;;;;;10.95;5.10;;;14.50;99.90;;;;;;5110572;28;20031;-89
2023/10/09 02:26:19;;;;;;;10.90;4.80;;;14.60;99.90;;;;;;5113725;28;20031;-84
2023/10/09 02:28:58;;;;;;;7.75;4.32;;;14.60;99.90;;;;;;5095997;28;20505;-87
2023/10/09 02:31:26;;;;;;;9.25;4.20;;;14.60;99.90;;;;;;5095072;28;20127;-86
2023/10/09 02:33:55;;;;;;;6.25;4.13;;;14.60;99.90;;;;;;5085268;28;20484;-88
2023/10/09 02:36:22;;;;;;;8.25;4.32;;;14.60;99.90;;;;;;5094376;28;20016;-87
2023/10/09 02:38:48;;;;;;;7.15;4.72;;;14.50;99.90;;;;;;5094001;28;20024;-84
2023/10/09 02:43:47;;;;;;;9.00;4.50;;;14.40;99.90;;;;;;5093233;28;20460;-87
2023/10/09 02:46:18;;;;;;;8.40;5.57;;;14.40;99.90;;;;;;5106778;28;20584;-84
2023/10/09 02:48:51;;;;;;;8.18;4.90;;;14.30;99.90;;;;;;5094681;28;20402;-84
2023/10/09 02:53:53;;;;;;;10.45;4.75;;;14.30;99.90;;;;;;5093225;28;20537;-83
2023/10/09 02:56:24;;;;;;;8.90;4.60;;;14.20;99.90;;;;;;5108689;28;20058;-89
2023/10/09 02:58:53;;;;;;;8.85;4.75;;;14.10;99.90;;;;;;5095924;28;20081;-86
2023/10/09 03:01:19;;;;;;;11.40;5.78;;;13.90;99.90;;;;;;5113722;28;21590;-87
2023/10/09 03:03:45;;;;;;;9.40;5.00;;;14.00;99.90;;;;;;5095345;28;20080;-85
2023/10/09 03:06:12;;;;;;;9.95;4.78;;;13.90;99.90;;;;;;5112267;28;20020;-86
2023/10/09 03:08:40;;;;;;;9.32;5.13;;;14.00;99.90;;;;;;5113100;28;20023;-85
2023/10/09 03:11:12;;;;;;;8.45;4.95;;;14.00;99.90;;;;;;5113258;28;20034;-86
2023/10/09 03:13:45;;;;;;;7.35;4.65;;;14.10;99.90;;;;;;5112751;28;20058;-88
2023/10/09 03:16:15;;;;;;;7.05;3.90;;;14.10;99.90;;;;;;5112976;28;20058;-87
2023/10/09 03:18:41;;;;;;;9.05;4.40;;;14.10;99.90;;;;;;5094873;28;20028;-85
2023/10/09 03:21:08;;;;;;;10.40;5.50;;;14.00;99.90;;;;;;5111841;28;20026;-88
2023/10/09 03:23:34;;;;;;;8.07;4.30;;;13.90;99.90;;;;;;5112244;28;20028;-84
2023/10/09 03:26:00;;;;;;;8.55;4.47;;;13.90;99.90;;;;;;5112704;28;20019;-84
2023/10/09 03:28:26;;;;;;;8.13;4.50;;;13.90;99.90;;;;;;5094592;28;20485;-84
2023/10/09 03:30:53;;;;;;;5.72;3.97;;;13.90;99.90;;;;;;5095386;28;20023;-86
2023/10/09 03:33:18;;;;;;;5.90;4.13;;;13.90;99.90;;;;;;5111457;28;20499;-90
2023/10/09 03:35:44;;;;;;;7.28;4.32;;;13.90;99.90;;;;;;5112504;28;20018;-86
2023/10/09 03:38:17;;;;;;;7.93;4.63;;;13.90;99.90;;;;;;5111465;28;20028;-88
2023/10/09 03:40:48;;;;;;;8.45;4.47;;;13.80;99.90;;;;;;5094023;28;20031;-86
2023/10/09 03:43:14;;;;;;;5.47;4.07;;;13.80;99.90;;;;;;5112660;28;20023;-86
2023/10/09 03:45:52;;;;;;;7.20;4.40;;;13.80;99.90;;;;;;5094211;28;20024;-86
2023/10/09 03:48:25;;;;;;;8.77;4.07;;;13.80;99.90;;;;;;5112229;28;20070;-85
2023/10/09 03:51:07;;;;;;;8.38;4.50;;;13.80;99.90;;;;;;5110547;28;20114;-85
2023/10/09 03:53:36;;;;;;;7.55;4.20;;;13.70;99.90;;;;;;5089125;28;22167;-86
2023/10/09 03:56:05;;;;;;;;;;;13.60;99.90;;;;;;5105171;28;20019;-89
2023/10/09 03:58:33;;;;;;;8.48;4.85;;;13.50;99.90;;;;;;5101428;28;20375;-84
2023/10/09 04:00:59;;;;;;;11.30;4.75;;;13.40;99.90;;;;;;5084088;28;20108;-86
2023/10/09 04:03:25;;;;;;;7.50;4.60;;;13.40;99.90;;;;;;5109623;27;20483;-86
2023/10/09 04:05:53;;;;;;;7.68;4.95;;;13.30;99.90;;;;;;5101167;28;20032;-84
2023/10/09 04:08:28;;;;;;;;;;;13.40;99.90;;;;;;5098605;28;20026;-85
2023/10/09 04:11:01;;;;;;;10.35;4.63;;;13.40;99.90;;;;;;5101285;28;19911;-87
2023/10/09 04:13:33;;;;;;;9.63;4.45;;;13.30;99.90;;;;;;5101902;28;20028;-84
2023/10/09 04:16:02;;;;;;;9.00;4.80;;;13.20;99.90;;;;;;5100618;28;20043;-88
2023/10/09 04:18:32;;;;;;;7.70;4.70;;;13.20;99.90;;;;;;5088744;28;20034;-84
2023/10/09 04:21:18;;;;;;;8.27;4.45;;;13.10;99.90;;;;;;5084736;28;20045;-85
2023/10/09 04:24:08;;;;;;;10.57;4.45;;;13.20;99.90;;;;;;5110132;28;20011;-85
2023/10/09 04:26:34;;;;;;;10.02;4.57;;;13.10;99.90;;;;;;5111657;28;20027;-84
2023/10/09 04:29:02;;;;;;;8.32;4.80;;;13.10;99.90;;;;;;5092545;28;20059;-84
2023/10/09 04:31:37;;;;;;;7.82;4.13;;;13.00;99.90;;;;;;5111171;28;20129;-84
2023/10/09 04:36:57;;;;;;;7.18;4.03;;;13.00;99.90;;;;;;5110996;28;20077;-84
2023/10/09 04:42:18;;;;;;;7.78;4.85;;;13.10;99.90;;;;;;5111859;28;20020;-86
2023/10/09 04:47:38;;;;;;;6.13;3.75;;;13.10;99.90;;;;;;5110243;28;20051;-87
2023/10/09 04:50:09;;;;;;;10.48;4.80;;;13.10;99.90;;;;;;5109899;28;20494;-83
2023/10/09 04:55:24;;;;;;;6.78;4.20;;;13.20;99.90;;;;;;5110755;28;20028;-84
2023/10/09 04:58:12;;;;;;;;;;;13.20;99.90;;;;;;5111221;28;20045;-86
2023/10/09 05:00:47;;;;;;;9.13;4.00;;;13.30;99.90;;;;;;5092232;28;19914;-89
2023/10/09 05:03:25;;;;;;;5.28;3.42;;;13.20;99.90;;;;;;5111083;28;20506;-88
2023/10/09 05:05:58;;;;;;;5.93;3.95;;;13.10;99.90;;;;;;5089576;28;20088;-88
2023/10/09 05:13:57;;;;;;;6.38;3.67;;;13.00;99.90;;;;;;5107517;27;20031;-84
2023/10/09 05:16:28;;;;;;;5.90;3.85;;;13.00;99.90;;;;;;5108659;28;20027;-87
2023/10/09 05:19:08;;;;;;;5.05;3.90;;;12.90;99.90;;;;;;5088109;28;20039;-84
2023/10/09 05:29:24;;;;;;;5.65;4.00;;;12.80;99.90;;;;;;5110196;28;20505;-84
2023/10/09 05:31:56;;;;;;;6.97;4.28;;;12.70;99.90;;;;;;5093771;28;20114;-87
2023/10/09 05:34:40;;;;;;;7.65;4.13;;;12.70;99.90;;;;;;5091379;28;20057;-89
2023/10/09 05:37:25;;;;;;;9.05;4.70;;;12.80;99.90;;;;;;5091881;28;20023;-88
2023/10/09 05:42:42;;;;;;;10.95;4.65;;;12.60;99.90;;;;;;5109877;28;20028;-85
2023/10/09 05:47:53;;;;;;;9.27;4.10;;;12.60;99.90;;;;;;5110118;28;20134;-87
2023/10/09 06:08:26;;;;;;;15.05;5.00;;;;;;;;;;5107445;28;20495;-85
2023/10/09 06:13:38;;;;;;;7.13;5.03;;;;;;;;;;5110305;28;20084;-84
2023/10/09 06:16:19;;;;;;;11.15;5.68;;;;;;;;;;5105364;28;20046;-86
2023/10/09 06:18:54;;;;;;;16.80;6.97;;;;;;;;;;5108550;28;20030;-87
2023/10/09 06:21:39;;;;;;;9.40;5.82;;;;;;;;;;5090359;28;20024;-86
2023/10/09 06:24:14;;;;;;;10.48;5.15;;;;;;;;;;5111907;28;20034;-87
2023/10/09 06:26:51;;;;;;;13.20;5.78;;;;;;;;;;5093532;28;20026;-83
2023/10/09 06:29:33;;;;;;;9.60;5.70;;;;;;;;;;5082299;28;20047;-85
2023/10/09 06:32:16;;;;;;;14.88;5.72;;;;;;;;;;5095098;28;20019;-86
2023/10/09 06:34:45;;;;;;;10.88;5.60;;;;;;;;;;5091050;28;20028;-87
2023/10/09 06:39:50;;;;;;;8.85;4.97;;;;;;;;;;5108975;28;20035;-83
2023/10/09 06:42:30;;;;;;;8.60;5.40;;;;;;;;;;5101647;28;20025;-86
2023/10/09 06:44:56;;;;;;;14.40;5.30;;;;;;;;;;5108793;28;20491;-86
2023/10/09 06:47:24;;;;;;;8.02;4.82;;;;;;;;;;5107781;28;20023;-87
2023/10/09 06:50:24;;;;;;;8.43;4.90;;;;;;;;;;5108263;28;20138;-84
2023/10/09 06:55:32;;;;;;;6.85;5.00;;;;;;;;;;5108276;28;20038;-87
2023/10/09 06:58:01;;;;;;;10.55;5.15;;;;;;;;;;5088562;28;20048;-88
2023/10/09 07:03:12;;;;;;;8.45;5.20;;;;;;;;;;5097474;28;20118;-84
2023/10/09 07:08:37;;;;;;;9.18;5.10;;;;;;;;;;5111101;28;20342;-85
2023/10/09 07:13:54;;;;;;;8.18;5.18;;;;;;;;;;5080280;28;20023;-85
2023/10/09 07:16:38;;;;;;;9.38;5.05;;;;;;;;;;5093692;28;20053;-83
2023/10/09 07:21:54;;;;;;;12.95;5.07;;;;;;;;;;5071440;28;20795;-86
2023/10/09 07:24:28;;;;;;;7.93;4.70;;;;;;;;;;5112339;28;20016;-87
2023/10/09 07:26:55;;;;;;;7.55;4.80;;;;;;;;;;5111912;28;20051;-88
2023/10/09 07:29:24;;;;;;;5.88;4.28;;;;;;;;;;5112134;28;20062;-87
2023/10/09 07:31:57;;;;;;;5.75;4.00;;;;;;;;;;5093344;28;20036;-87
2023/10/09 07:34:52;;;;;;;6.15;4.13;;;;;;;;;;5112083;28;20084;-86
2023/10/09 07:37:19;;;;;;;6.97;4.70;;;;;;;;;;5092796;28;20106;-87
2023/10/09 07:39:56;;;;;;;6.75;4.60;;;;;;;;;;5112282;28;20028;-87
2023/10/09 07:46:29;;;;;;;7.72;4.20;;;;;;;;;;5110965;28;20484;-86
2023/10/09 07:50:30;;;;;;;7.55;4.65;;;;;;;;;;5111011;28;20040;-86
2023/10/09 07:53:14;;;;;;;6.60;4.07;;;;;;;;;;5112109;28;20335;-88
2023/10/09 07:55:45;;;;;;;6.68;4.50;;;;;;;;;;5093693;28;20118;-88
2023/10/09 07:58:11;;;;;;;7.22;4.53;;;;;;;;;;5110670;28;20137;-86
2023/10/09 08:01:06;;;;;;;6.30;4.28;;;;;;;;;;5093613;28;20085;-85
2023/10/09 08:03:24;;;;;;;5.82;4.30;;;;;;;;;;5110252;28;20360;-84
2023/10/09 08:05:52;;;;;;;9.93;5.45;;;;;;;;;;5111229;28;20028;-85
2023/10/09 08:13:56;;;;;;;12.23;5.70;;;;;;;;;;5110847;28;20497;-90
2023/10/09 08:16:24;;;;;;;;;;;;;;;;;;5093259;28;20051;-90
2023/10/09 08:18:51;;;;;;;8.07;5.40;;;;;;;;;;5092052;28;20436;-87
2023/10/09 08:21:38;;;;;;;9.35;4.82;;;;;;;;;;5092691;28;20274;-86
2023/10/09 08:24:04;;;;;;;10.45;6.22;;;;;;;;;;5110607;28;20032;-86
2023/10/09 08:26:47;;;;;;;15.73;6.20;;;;;;;;;;5092602;28;20487;-86
2023/10/09 08:29:17;;;;;;;11.15;6.00;;;;;;;;;;5091255;28;20043;-87
2023/10/09 08:31:47;;;;;;;13.82;6.00;;;;;;;;;;5092679;28;20552;-86
2023/10/09 08:34:26;;;;;;;12.45;5.30;;;;;;;;;;5109596;28;20031;-88
2023/10/09 08:36:53;;;;;;;8.35;5.03;;;;;;;;;;5092387;28;20029;-86
2023/10/09 08:39:26;;;;;;;10.60;5.38;;;;;;;;;;5091853;28;20032;-86
2023/10/09 08:41:53;;;;;;;7.75;4.75;;;;;;;;;;5110782;28;20020;-86
2023/10/09 08:44:23;;;;;;;11.80;5.10;;;;;;;;;;5109282;28;20487;-86
2023/10/09 08:46:50;;;;;;;8.25;4.93;;;;;;;;;;5109416;28;20024;-87
2023/10/09 08:49:17;;;;;;;8.38;4.90;;;;;;;;;;5110189;28;20502;-86
2023/10/09 08:51:43;;;;;;;8.20;4.60;;;;;;;;;;5090779;28;20063;-86
2023/10/09 08:54:11;;;;;;;12.73;5.35;;;;;;;;;;5092336;28;20026;-90
2023/10/09 08:56:39;;;;;;;;;;;;;;;;;;5110105;28;20046;-86
2023/10/09 08:59:05;;;;;;;9.80;5.22;;;;;;;;;;5093306;28;19998;-89
2023/10/09 09:01:32;;;;;;;6.97;4.45;;;;;;;;;;5110435;28;20399;-86
2023/10/09 09:03:59;;;;;;;8.35;4.72;;;;;;;;;;5092507;28;20100;-87
2023/10/09 09:06:26;;;;;;;7.88;4.50;;;;;;;;;;5090875;28;20183;-86
2023/10/09 09:08:59;;;;;;;7.93;4.80;;;;;;;;;;5109893;28;20073;-85
2023/10/09 09:11:30;;;;;;;6.25;3.97;;;;;;;;;;5090228;28;20084;-86
2023/10/09 09:14:05;;;;;;;10.57;4.60;;;;;;;;;;5091172;28;20262;-85
2023/10/09 09:16:36;;;;;;;9.07;4.13;;;;;;;;;;5090262;28;20023;-83
2023/10/09 09:19:17;;;;;;;6.95;4.10;;;;;;;;;;5093913;28;20076;-85
2023/10/09 09:21:54;;;;;;;7.35;4.13;;;;;;;;;;5109118;28;20038;-87
2023/10/09 09:24:30;;;;;;;7.82;4.10;;;;;;;;;;5088784;28;20048;-83
2023/10/09 09:27:18;;;;;;;7.07;3.80;;;;;;;;;;5089208;28;20016;-84
2023/10/09 09:29:52;;;;;;;5.75;3.88;;;;;;;;;;5104737;28;20054;-84
2023/10/09 09:32:29;;;;;;;7.10;3.88;;;;;;;;;;5107218;28;20095;-84
2023/10/09 09:35:01;;;;;;;7.15;3.42;;;;;;;;;;5070795;28;20028;-84
2023/10/09 09:37:33;;;;;;;9.63;3.60;;;;;;;;;;5105877;28;20038;-84
2023/10/09 09:40:15;;;;;;;10.48;3.80;;;;;;;;;;5108130;28;20023;-85
2023/10/09 09:42:48;;;;;;;10.55;4.05;;;;;;;;;;5109218;28;20399;-83
2023/10/09 09:45:16;;;;;;;8.82;4.10;;;;;;;;;;5108774;28;20044;-85
2023/10/09 09:47:51;;;;;;;10.45;4.63;;;;;;;;;;5108803;28;20030;-84
2023/10/09 09:50:29;;;;;;;10.40;4.68;;;;;;;;;;5090580;28;20043;-84
2023/10/09 09:52:56;;;;;;;6.82;4.20;;;;;;;;;;5090945;28;20030;-84
2023/10/09 09:55:30;;;;;;;7.65;4.75;;;;;;;;;;5090237;28;20402;-85
2023/10/09 09:57:57;;;;;;;18.27;4.90;;;;;;;;;;5106268;28;20023;-85
2023/10/09 10:03:08;;;;;;;5.60;3.25;;;;;;;;;;5108728;28;20035;-86
2023/10/09 10:05:34;;;;;;;5.40;3.40;;;;;;;;;;5091981;28;20023;-86
2023/10/09 10:08:01;;;;;;;6.05;3.33;;;;;;;;;;5090984;28;20456;-86
2023/10/09 10:10:37;;;;;;;6.38;3.30;;;;;;;;;;5090110;28;20237;-85
2023/10/09 10:13:03;;;;;;;6.75;3.55;;;;;;;;;;5091044;28;20403;-86
2023/10/09 10:15:56;;;;;;;5.05;3.20;;;;;;;;;;5108596;28;20019;-86
2023/10/09 10:18:23;;;;;;;5.38;3.22;;;;;;;;;;5068687;28;20069;-85
2023/10/09 10:21:14;;;;;;;4.80;3.10;;;;;;;;;;5079609;28;20020;-86
2023/10/09 10:23:40;;;;;;;6.25;3.20;;;;;;;;;;5099919;28;20146;-87
2023/10/09 10:26:25;;;;;;;5.57;3.40;;;;;;;;;;5099861;28;20034;-87
2023/10/09 10:29:16;;;;;;;4.20;3.28;;;;;;;;;;5084610;28;20047;-85
2023/10/09 10:31:57;;;;;;;13.15;3.60;;;;;;;;;;5072808;28;20020;-87
2023/10/09 10:34:24;;;;;;;4.70;2.97;;;;;;;;;;5073548;28;20031;-87
2023/10/09 10:37:00;;;;;;;6.80;2.90;;;;;;;;;;5084625;28;20635;-87
2023/10/09 10:39:42;;;;;;;6.72;3.25;;;;;;;;;;5096571;28;20397;-86
2023/10/09 10:42:14;;;;;;;4.50;3.17;;;;;;;;;;5084958;28;20032;-86
2023/10/09 10:44:44;;;;;;;6.18;3.17;;;;;;;;;;5104088;28;20482;-86
2023/10/09 10:47:47;;;;;;;5.72;3.45;;;;;;;;;;5110607;28;20141;-86
2023/10/09 10:52:57;;;;;;;5.03;2.90;;;;;;;;;;5105030;28;20111;-90
2023/10/09 10:58:00;;;;;;;5.78;3.33;;;;;;;;;;5111231;28;20032;-88
2023/10/09 11:03:14;;;;;;;7.28;2.95;;;;;;;;;;5114429;28;20041;-87
2023/10/09 11:05:42;;;;;;;8.48;3.47;;;;;;;;;;5096796;28;20035;-89
2023/10/09 11:08:11;;;;;;;7.78;3.28;;;;;;;;;;5112529;28;20028;-87
2023/10/09 11:10:49;;;;;;;9.23;3.08;;;;;;;;;;5094202;28;20027;-88
2023/10/09 11:13:34;;;;;;;5.40;3.10;;;;;;;;;;5111030;28;20042;-86
2023/10/09 11:16:23;;;;;;;4.93;2.90;;;;;;;;;;5112801;28;20043;-92
2023/10/09 11:18:49;;;;;;;4.68;2.83;;;;;;;;;;5112072;28;20541;-87
2023/10/09 11:24:24;;;;;;;5.80;2.70;;;;;;;;;;5112672;28;20055;-88
2023/10/09 11:26:55;;;;;;;5.72;2.70;;;;;;;;;;5112307;28;20118;-88
2023/10/09 11:29:29;;;;;;;6.15;3.10;;;;;;;;;;5110590;28;20031;-92
2023/10/09 11:32:17;;;;;;;5.63;2.50;;;;;;;;;;5094510;28;20028;-92
2023/10/09 11:34:51;;;;;;;3.38;2.50;;;;;;;;;;5093827;28;20031;-85
2023/10/09 11:40:00;;;;;;;6.32;2.83;;;;;;;;;;5100454;28;20266;-85
2023/10/09 11:42:35;;;;;;;5.05;3.00;;;;;;;;;;5111489;28;20247;-85
2023/10/09 11:45:05;;;;;;;3.53;2.30;;;;;;;;;;5094027;28;20380;-86
2023/10/09 11:47:35;;;;;;;4.88;2.72;;;;;;;;;;5111794;28;20392;-87
2023/10/09 11:52:56;;;;;;;4.72;2.97;;;;;;;;;;5111140;28;20031;-84
2023/10/09 11:55:25;;;;;;;4.43;2.75;;;;;;;;;;5087761;28;20162;-86
2023/10/09 11:57:51;;;;;;;7.95;2.83;;;;;;;;;;5072520;28;20024;-85
2023/10/09 12:00:29;;;;;;;8.65;2.90;;;;;;;;;;5090376;28;20380;-85
2023/10/09 12:03:05;;;;;;;6.65;2.42;;;;;;;;;;5089902;28;20391;-89
2023/10/09 12:05:32;;;;;;;3.72;2.60;;;;;;;;;;5111765;28;20375;-86
2023/10/09 12:08:01;;;;;;;6.95;2.70;;;;;;;;;;5092585;28;20035;-87
2023/10/09 12:10:27;;;;;;;5.35;2.50;;;;;;;;;;5089260;28;20046;-88
2023/10/09 12:12:53;;;;;;;5.45;2.80;;;;;;;;;;5090561;28;20023;-85
2023/10/09 12:15:20;;;;;;;8.27;2.72;;;;;;;;;;5108602;28;20059;-88
2023/10/09 12:17:47;;;;;;;5.38;2.70;;;;;;;;;;5092925;28;20024;-85
2023/10/09 12:20:37;;;;;;;5.95;3.10;;;;;;;;;;5110989;28;20027;-88
2023/10/09 12:23:06;;;;;;;8.80;3.20;;;;;;;;;;5111441;28;20035;-86
2023/10/09 12:25:33;;;;;;;5.78;2.75;;;;;;;;;;5093519;28;20472;-86
2023/10/09 12:28:01;;;;;;;4.55;2.70;;;;;;;;;;5110858;28;20594;-86
2023/10/09 12:30:27;;;;;;;11.07;2.50;;;;;;;;;;5109209;28;20403;-88
2023/10/09 12:32:54;;;;;;;7.63;3.17;;;;;;;;;;5102692;28;20074;-91
2023/10/09 12:35:21;;;;;;;8.65;3.00;;;;;;;;;;5079095;28;20028;-86
2023/10/09 12:37:47;;;;;;;5.78;2.90;;;;;;;;;;5090150;28;20044;-92
2023/10/09 12:40:13;;;;;;;6.25;2.90;;;;;;;;;;5108001;28;20027;-87
2023/10/09 12:42:40;;;;;;;8.65;2.80;;;;;;;;;;5110509;28;20069;-93
2023/10/09 12:45:09;;;;;;;8.75;2.70;;;;;;;;;;5109389;28;20020;-86
2023/10/09 12:47:38;;;;;;;12.30;3.15;;;;;;;;;;5090952;28;20031;-85
2023/10/09 12:50:13;;;;;;;5.32;2.75;;;;;;;;;;5110708;28;20043;-85
2023/10/09 12:52:39;;;;;;;6.13;2.88;;;;;;;;;;5109481;28;20018;-88
2023/10/09 12:55:07;;;;;;;6.35;2.85;;;;;;;;;;5083180;28;20032;-89
2023/10/09 12:57:33;;;;;;;6.32;2.70;;;;;;;;;;5092052;28;20066;-86
2023/10/09 12:59:59;;;;;;;7.35;2.70;;;;;;;;;;5109496;28;20070;-85
2023/10/09 13:02:28;;;;;;;5.28;2.83;;;;;;;;;;5109504;28;20024;-85
2023/10/09 13:04:57;;;;;;;9.10;3.20;;;;;;;;;;5090821;28;20030;-84
2023/10/09 13:07:23;;;;;;;4.20;2.67;;;;;;;;;;5109031;28;20031;-86
2023/10/09 13:10:08;;;;;;;11.38;3.50;;;;;;;;;;5105902;28;20031;-84
2023/10/09 13:12:40;;;;;;;10.55;2.80;;;;;;;;;;5089164;28;20121;-91
2023/10/09 13:15:09;;;;;;;9.32;3.00;;;;;;;;;;5089458;28;20024;-86
2023/10/09 13:17:36;;;;;;;7.05;3.35;;;;;;;;;;5072561;28;20053;-88
2023/10/09 13:20:04;;;;;;;7.40;3.10;;;;;;;;;;5090712;28;20042;-88
2023/10/09 13:22:30;;;;;;;;;;;;;;;;;;5071897;28;20107;-88
2023/10/09 13:25:03;;;;;;;5.13;2.70;;;;;;;;;;5071733;28;20135;-88
2023/10/09 13:27:34;;;;;;;9.98;3.50;;;;;;;;;;5089220;28;20019;-88
2023/10/09 13:30:05;;;;;;;11.15;3.53;;;;;;;;;;5089357;28;20058;-88
2023/10/09 13:32:35;;;;;;;10.25;3.40;;;;;;;;;;5071984;28;20438;-87
2023/10/09 13:35:03;;;;;;;6.68;3.13;;;;;;;;;;5090298;28;20024;-87
2023/10/09 13:37:31;;;;;;;7.28;3.00;;;;;;;;;;5070732;28;20024;-90
2023/10/09 13:39:58;;;;;;;6.75;3.10;;;;;;;;;;5071414;28;20020;-87
2023/10/09 13:42:25;;;;;;;7.72;3.20;;;;;;;;;;5089172;28;20023;-89
2023/10/09 13:44:53;;;;;;;14.07;3.58;;;;;;;;;;5071215;28;20437;-91
2023/10/09 13:47:20;;;;;;;;;;;;;;;;;;5071541;28;20051;-88
2023/10/09 13:49:50;;;;;;;9.40;3.40;;;;;;;;;;5071082;28;19916;-89
2023/10/09 13:52:21;;;;;;;9.65;3.25;;;;;;;;;;5088931;28;20464;-86
2023/10/09 13:54:49;;;;;;;6.60;3.20;;;;;;;;;;5089358;28;20107;-88
2023/10/09 13:57:15;;;;;;;8.10;3.33;;;;;;;;;;5070988;28;20530;-87
2023/10/09 13:59:51;;;;;;;5.97;3.17;;;;;;;;;;5071104;28;20569;-89
2023/10/09 14:02:17;;;;;;;7.50;3.42;;;;;;;;;;5088957;28;20069;-91
2023/10/09 14:04:43;;;;;;;5.47;2.97;;;;;;;;;;5089203;28;20154;-88
2023/10/09 14:07:09;;;;;;;7.72;3.05;;;;;;;;;;5088929;28;20027;-86
2023/10/09 14:09:45;;;;;;;9.60;3.45;;;;;;;;;;5089565;28;20134;-87
2023/10/09 14:12:13;;;;;;;6.65;3.35;;;;;;;;;;5088602;28;20050;-89
2023/10/09 14:14:49;;;;;;;8.27;3.13;;;;;;;;;;5071127;28;20067;-91
2023/10/09 14:17:19;;;;;;;10.45;3.70;;;;;;;;;;5091670;28;20489;-88
2023/10/09 14:19:47;;;;;;;7.30;3.33;;;;;;;;;;5095693;28;20024;-89
2023/10/09 14:22:17;;;;;;;6.97;3.58;;;;;;;;;;5077219;28;20028;-87
2023/10/09 14:24:47;;;;;;;7.55;3.05;;;;;;;;;;5095457;28;20483;-88
2023/10/09 14:27:19;;;;;;;6.32;3.22;;;;;;;;;;5077230;28;20024;-87
2023/10/09 14:29:49;;;;;;;6.22;3.42;;;;;;;;;;5095659;28;20121;-91
2023/10/09 14:32:16;;;;;;;12.38;3.20;;;;;;;;;;5095560;28;20027;-89
2023/10/09 14:34:50;;;;;;;6.75;3.38;;;;;;;;;;5077544;28;20026;-88
2023/10/09 14:37:17;;;;;;;6.57;3.42;;;;;;;;;;5095638;28;20095;-87
2023/10/09 14:39:48;;;;;;;6.10;3.10;;;;;;;;;;5095100;28;20517;-86
2023/10/09 14:42:15;;;;;;;7.28;3.45;;;;;;;;;;5104709;28;20569;-87
2023/10/09 14:44:41;;;;;;;7.57;3.30;;;;;;;;;;5096879;28;20024;-88
2023/10/09 14:47:08;;;;;;;9.07;3.42;;;;;;;;;;5115523;27;20031;-86
2023/10/09 14:49:43;;;;;;;7.43;3.45;;;;;;;;;;5097420;28;20027;-87
2023/10/09 14:52:09;;;;;;;8.57;3.42;;;;;;;;;;5096955;28;20048;-88
2023/10/09 14:54:39;;;;;;;13.40;4.03;;;;;;;;;;5098424;28;20025;-88
2023/10/09 14:57:05;;;;;;;8.20;3.42;;;;;;;;;;5115590;28;20019;-87
2023/10/09 14:59:34;;;;;;;7.35;3.40;;;;;;;;;;5092329;27;20035;-90
2023/10/09 15:02:01;;;;;;;11.15;3.58;;;;;;;;;;5106945;27;20019;-86
2023/10/09 15:04:27;;;;;;;10.07;3.05;;;;;;;;;;5083888;28;20506;-86
2023/10/09 15:06:53;;;;;;;11.25;3.78;;;;;;;;;;5091927;28;20031;-89
2023/10/09 15:09:22;;;;;;;8.32;3.53;;;;;;;;;;5092400;28;20131;-86
2023/10/09 15:11:48;;;;;;;14.45;3.88;;;;;;;;;;5107057;28;20035;-90
2023/10/09 15:14:15;;;;;;;8.93;3.42;;;;;;;;;;5107701;27;20026;-90
2023/10/09 15:16:42;;;;;;;10.68;3.78;;;;;;;;;;5092625;28;20032;-86
2023/10/09 15:19:10;;;;;;;7.35;3.60;;;;;;;;;;5082230;28;20106;-86
2023/10/09 15:21:43;;;;;;;9.60;3.33;;;;;;;;;;5097012;28;20032;-87
2023/10/09 15:24:15;;;;;;;6.88;3.80;;;;;;;;;;5096001;28;20061;-86
2023/10/09 15:26:41;;;;;;;10.25;3.60;;;;;;;;;;5090848;28;20028;-88
2023/10/09 15:29:09;;;;;;;11.63;3.47;;;;;;;;;;5109991;28;20321;-91
2023/10/09 15:31:36;;;;;;;9.02;4.03;;;;;;;;;;5093076;28;20050;-85
2023/10/09 15:34:02;;;;;;;10.57;3.38;;;;;;;;;;5110401;28;20038;-86
2023/10/09 15:36:32;;;;;;;8.77;3.63;;;;;;;;;;5111572;28;20055;-85
2023/10/09 15:38:59;;;;;;;13.45;3.90;;;;;;;;;;5111110;28;20109;-90
2023/10/09 15:41:29;;;;;;;7.45;3.80;;;;;;;;;;5092945;28;20063;-86
2023/10/09 15:43:56;;;;;;;10.52;3.70;;;;;;;;;;5093021;28;20045;-88
2023/10/09 15:46:22;;;;;;;9.13;3.28;;;;;;;;;;5110982;28;20031;-86
2023/10/09 15:48:51;;;;;;;12.70;3.92;;;;;;;;;;5104360;28;20024;-91
2023/10/09 15:51:17;;;;;;;12.60;3.72;;;;;;;;;;5104862;28;20403;-85
2023/10/09 15:53:47;;;;;;;7.15;3.20;;;;;;;;;;5090555;28;20020;-85
2023/10/09 15:56:13;;;;;;;10.68;3.88;;;;;;;;;;5090486;28;20024;-88
2023/10/09 15:58:43;;;;;;;7.55;3.80;;;;;;;;;;5106570;28;20096;-90
2023/10/09 16:01:13;;;;;;;6.57;3.35;;;;;;;;;;5090690;28;20016;-85
2023/10/09 16:03:40;;;;;;;6.75;3.60;;;;;;;;;;5092439;28;20502;-85
2023/10/09 16:06:11;;;;;;;10.68;3.67;;;;;;;;;;5111396;28;20030;-86
2023/10/09 16:08:38;;;;;;;11.40;3.72;;;;;;;;;;5111898;28;20052;-88
2023/10/09 16:11:04;;;;;;;11.23;3.40;;;;;;;;;;5089363;28;20031;-87
2023/10/09 16:13:32;;;;;;;11.20;3.50;;;;;;;;;;5090303;28;20024;-90
2023/10/09 16:15:59;;;;;;;11.13;3.90;;;;;;;;;;5090887;28;20033;-86
2023/10/09 16:18:29;;;;;;;12.33;4.57;;;;;;;;;;5103666;28;20023;-90
2023/10/09 16:20:55;;;;;;;8.05;3.80;;;;;;;;;;5108405;28;20023;-91
2023/10/09 16:23:21;;;;;;;8.65;3.75;;;;;;;;;;5109512;28;20051;-86
2023/10/09 16:25:48;;;;;;;7.18;3.78;;;;;;;;;;5109735;28;20501;-91